sensor_id;sensor_type;location;lat;lon;timestamp;pressure;altitude;pressure_sealevel;temperature;humidity
54996;BME280;40893;47.146;9.126;2022-08-14T00:00:14;90996.59;;;17.21;60.80
54996;BME280;40893;47.146;9.126;2022-08-14T00:02:41;90990.97;;;17.06;62.07
54996;BME280;40893;47.146;9.126;2022-08-14T00:05:09;90994.22;;;17.16;61.53
54996;BME280;40893;47.146;9.126;2022-08-14T00:07:35;90984.19;;;17.26;61.09
54996;BME280;40893;47.146;9.126;2022-08-14T00:10:02;90975.09;;;17.20;61.34
54996;BME280;40893;47.146;9.126;2022-08-14T00:12:29;90973.38;;;17.00;61.35
54996;BME280;40893;47.146;9.126;2022-08-14T00:14:55;90968.38;;;16.95;61.66
54996;BME280;40893;47.146;9.126;2022-08-14T00:17:21;90971.38;;;16.85;62.17
54996;BME280;40893;47.146;9.126;2022-08-14T00:19:47;90963.28;;;16.74;62.68
54996;BME280;40893;47.146;9.126;2022-08-14T00:22:12;90957.88;;;16.67;63.07
54996;BME280;40893;47.146;9.126;2022-08-14T00:24:45;90960.25;;;16.72;63.04
54996;BME280;40893;47.146;9.126;2022-08-14T00:27:11;90955.97;;;16.88;62.82
54996;BME280;40893;47.146;9.126;2022-08-14T00:29:36;90963.75;;;17.00;62.03
54996;BME280;40893;47.146;9.126;2022-08-14T00:32:02;90955.53;;;16.98;62.69
54996;BME280;40893;47.146;9.126;2022-08-14T00:34:28;90956.00;;;17.00;62.66
54996;BME280;40893;47.146;9.126;2022-08-14T00:36:53;90949.75;;;17.14;62.41
54996;BME280;40893;47.146;9.126;2022-08-14T00:39:19;90950.16;;;17.16;61.46
54996;BME280;40893;47.146;9.126;2022-08-14T00:41:46;90952.19;;;16.98;62.25
54996;BME280;40893;47.146;9.126;2022-08-14T00:44:12;90945.72;;;16.80;63.65
54996;BME280;40893;47.146;9.126;2022-08-14T00:46:38;90947.31;;;16.84;62.86
54996;BME280;40893;47.146;9.126;2022-08-14T00:49:06;90950.34;;;16.86;63.14
54996;BME280;40893;47.146;9.126;2022-08-14T00:51:33;90946.66;;;16.75;63.02
54996;BME280;40893;47.146;9.126;2022-08-14T00:53:59;90936.72;;;16.65;63.22
54996;BME280;40893;47.146;9.126;2022-08-14T00:56:27;90931.13;;;16.75;63.38
54996;BME280;40893;47.146;9.126;2022-08-14T00:58:52;90926.06;;;16.91;62.89
54996;BME280;40893;47.146;9.126;2022-08-14T01:01:20;90926.19;;;17.06;61.78
54996;BME280;40893;47.146;9.126;2022-08-14T01:03:46;90921.56;;;17.12;61.37
54996;BME280;40893;47.146;9.126;2022-08-14T01:06:13;90916.03;;;17.26;61.60
54996;BME280;40893;47.146;9.126;2022-08-14T01:08:43;90917.13;;;17.25;61.39
54996;BME280;40893;47.146;9.126;2022-08-14T01:11:10;90918.63;;;17.26;60.82
54996;BME280;40893;47.146;9.126;2022-08-14T01:13:41;90921.22;;;17.38;61.24
54996;BME280;40893;47.146;9.126;2022-08-14T01:16:11;90909.09;;;17.42;60.04
54996;BME280;40893;47.146;9.126;2022-08-14T01:18:37;90912.88;;;17.45;59.76
54996;BME280;40893;47.146;9.126;2022-08-14T01:21:36;90918.50;;;17.47;60.04
54996;BME280;40893;47.146;9.126;2022-08-14T01:24:04;90917.19;;;17.53;60.57
54996;BME280;40893;47.146;9.126;2022-08-14T01:26:32;90913.31;;;17.34;60.28
54996;BME280;40893;47.146;9.126;2022-08-14T01:29:00;90908.72;;;17.03;61.45
54996;BME280;40893;47.146;9.126;2022-08-14T01:31:29;90899.72;;;16.89;62.40
54996;BME280;40893;47.146;9.126;2022-08-14T01:34:01;90897.47;;;16.87;62.05
54996;BME280;40893;47.146;9.126;2022-08-14T01:36:28;90901.25;;;16.90;61.31
54996;BME280;40893;47.146;9.126;2022-08-14T01:39:05;90891.97;;;17.01;62.44
54996;BME280;40893;47.146;9.126;2022-08-14T01:41:32;90890.44;;;17.00;61.96
54996;BME280;40893;47.146;9.126;2022-08-14T01:44:00;90890.00;;;16.98;62.22
54996;BME280;40893;47.146;9.126;2022-08-14T01:46:38;90881.91;;;16.87;63.45
54996;BME280;40893;47.146;9.126;2022-08-14T01:49:07;90870.34;;;16.73;63.21
54996;BME280;40893;47.146;9.126;2022-08-14T01:51:33;90874.34;;;16.82;63.30
54996;BME280;40893;47.146;9.126;2022-08-14T01:54:02;90876.75;;;16.87;62.07
54996;BME280;40893;47.146;9.126;2022-08-14T01:56:32;90876.19;;;16.94;62.39
54996;BME280;40893;47.146;9.126;2022-08-14T01:59:01;90872.63;;;16.98;61.92
54996;BME280;40893;47.146;9.126;2022-08-14T02:01:30;90869.53;;;16.93;62.80
54996;BME280;40893;47.146;9.126;2022-08-14T02:03:55;90863.97;;;16.82;62.94
54996;BME280;40893;47.146;9.126;2022-08-14T02:06:21;90871.22;;;16.77;63.66
54996;BME280;40893;47.146;9.126;2022-08-14T02:08:47;90870.59;;;16.80;63.59
54996;BME280;40893;47.146;9.126;2022-08-14T02:11:13;90863.91;;;16.79;63.59
54996;BME280;40893;47.146;9.126;2022-08-14T02:13:43;90866.50;;;16.91;63.25
54996;BME280;40893;47.146;9.126;2022-08-14T02:16:11;90864.75;;;16.83;63.60
54996;BME280;40893;47.146;9.126;2022-08-14T02:18:37;90857.31;;;16.69;62.43
54996;BME280;40893;47.146;9.126;2022-08-14T02:21:05;90852.78;;;16.78;63.32
54996;BME280;40893;47.146;9.126;2022-08-14T02:23:31;90846.09;;;16.89;63.46
54996;BME280;40893;47.146;9.126;2022-08-14T02:25:59;90839.81;;;17.02;62.73
54996;BME280;40893;47.146;9.126;2022-08-14T02:28:27;90848.00;;;17.17;62.74
54996;BME280;40893;47.146;9.126;2022-08-14T02:30:55;90848.56;;;17.10;61.55
54996;BME280;40893;47.146;9.126;2022-08-14T02:33:21;90843.06;;;16.99;62.67
54996;BME280;40893;47.146;9.126;2022-08-14T02:35:48;90840.47;;;16.99;62.23
54996;BME280;40893;47.146;9.126;2022-08-14T02:38:13;90833.75;;;16.98;60.50
54996;BME280;40893;47.146;9.126;2022-08-14T02:40:39;90832.13;;;17.06;61.63
54996;BME280;40893;47.146;9.126;2022-08-14T02:43:05;90831.34;;;17.18;62.21
54996;BME280;40893;47.146;9.126;2022-08-14T02:45:31;90828.44;;;17.19;60.97
54996;BME280;40893;47.146;9.126;2022-08-14T02:48:02;90826.19;;;17.18;61.23
54996;BME280;40893;47.146;9.126;2022-08-14T02:50:31;90827.38;;;17.20;61.47
54996;BME280;40893;47.146;9.126;2022-08-14T02:52:57;90819.47;;;17.17;61.59
54996;BME280;40893;47.146;9.126;2022-08-14T02:55:22;90810.53;;;17.14;62.40
54996;BME280;40893;47.146;9.126;2022-08-14T02:57:49;90810.66;;;16.93;62.22
54996;BME280;40893;47.146;9.126;2022-08-14T03:00:16;90807.88;;;16.86;62.77
54996;BME280;40893;47.146;9.126;2022-08-14T03:02:43;90811.09;;;16.83;63.06
54996;BME280;40893;47.146;9.126;2022-08-14T03:05:09;90808.06;;;16.93;62.06
54996;BME280;40893;47.146;9.126;2022-08-14T03:07:36;90802.53;;;17.07;61.91
54996;BME280;40893;47.146;9.126;2022-08-14T03:10:02;90803.16;;;17.16;60.46
54996;BME280;40893;47.146;9.126;2022-08-14T03:12:31;90793.06;;;16.99;61.35
54996;BME280;40893;47.146;9.126;2022-08-14T03:14:56;90789.19;;;16.93;62.31
54996;BME280;40893;47.146;9.126;2022-08-14T03:17:23;90784.84;;;16.97;62.27
54996;BME280;40893;47.146;9.126;2022-08-14T03:19:48;90788.31;;;17.01;61.73
54996;BME280;40893;47.146;9.126;2022-08-14T03:22:18;90778.75;;;16.77;63.00
54996;BME280;40893;47.146;9.126;2022-08-14T03:24:43;90774.44;;;16.69;62.69
54996;BME280;40893;47.146;9.126;2022-08-14T03:27:09;90776.13;;;16.53;63.28
54996;BME280;40893;47.146;9.126;2022-08-14T03:29:38;90770.94;;;16.53;62.81
54996;BME280;40893;47.146;9.126;2022-08-14T03:32:05;90766.31;;;16.46;63.78
54996;BME280;40893;47.146;9.126;2022-08-14T03:34:30;90768.16;;;16.33;64.44
54996;BME280;40893;47.146;9.126;2022-08-14T03:36:56;90773.84;;;16.27;63.99
54996;BME280;40893;47.146;9.126;2022-08-14T03:39:22;90765.56;;;16.33;64.77
54996;BME280;40893;47.146;9.126;2022-08-14T03:41:55;90768.69;;;16.39;64.65
54996;BME280;40893;47.146;9.126;2022-08-14T03:44:21;90773.00;;;16.47;64.20
54996;BME280;40893;47.146;9.126;2022-08-14T03:46:48;90774.09;;;16.46;64.31
54996;BME280;40893;47.146;9.126;2022-08-14T03:49:16;90776.56;;;16.55;64.20
54996;BME280;40893;47.146;9.126;2022-08-14T03:51:47;90772.38;;;16.62;63.74
54996;BME280;40893;47.146;9.126;2022-08-14T03:54:13;90780.69;;;16.68;62.22
54996;BME280;40893;47.146;9.126;2022-08-14T03:56:40;90769.03;;;16.74;62.73
54996;BME280;40893;47.146;9.126;2022-08-14T03:59:11;90764.78;;;16.82;62.84
54996;BME280;40893;47.146;9.126;2022-08-14T04:01:39;90765.34;;;16.87;62.83
54996;BME280;40893;47.146;9.126;2022-08-14T04:04:06;90774.31;;;16.90;62.70
54996;BME280;40893;47.146;9.126;2022-08-14T04:06:33;90777.97;;;16.77;63.04
54996;BME280;40893;47.146;9.126;2022-08-14T04:09:00;90777.63;;;16.54;62.76
54996;BME280;40893;47.146;9.126;2022-08-14T04:11:25;90770.06;;;16.49;62.06
54996;BME280;40893;47.146;9.126;2022-08-14T04:13:51;90768.38;;;16.53;63.82
54996;BME280;40893;47.146;9.126;2022-08-14T04:16:20;90773.44;;;16.61;63.10
54996;BME280;40893;47.146;9.126;2022-08-14T04:18:53;90764.41;;;16.67;63.02
54996;BME280;40893;47.146;9.126;2022-08-14T04:21:20;90763.00;;;16.70;63.47
54996;BME280;40893;47.146;9.126;2022-08-14T04:23:49;90763.31;;;16.68;62.78
54996;BME280;40893;47.146;9.126;2022-08-14T04:26:16;90775.38;;;16.52;62.58
54996;BME280;40893;47.146;9.126;2022-08-14T04:28:47;90767.59;;;16.52;63.67
54996;BME280;40893;47.146;9.126;2022-08-14T04:31:15;90768.56;;;16.60;63.44
54996;BME280;40893;47.146;9.126;2022-08-14T04:33:41;90767.09;;;16.59;63.40
54996;BME280;40893;47.146;9.126;2022-08-14T04:36:07;90760.28;;;16.66;63.44
54996;BME280;40893;47.146;9.126;2022-08-14T04:38:33;90769.34;;;16.73;63.55
54996;BME280;40893;47.146;9.126;2022-08-14T04:41:16;90769.56;;;16.80;62.79
54996;BME280;40893;47.146;9.126;2022-08-14T04:44:17;90762.44;;;16.89;62.21
54996;BME280;40893;47.146;9.126;2022-08-14T04:46:43;90765.69;;;16.74;62.23
54996;BME280;40893;47.146;9.126;2022-08-14T04:49:27;90766.72;;;16.60;63.29
54996;BME280;40893;47.146;9.126;2022-08-14T04:51:53;90766.22;;;16.55;63.62
54996;BME280;40893;47.146;9.126;2022-08-14T04:54:18;90766.09;;;16.51;62.39
54996;BME280;40893;47.146;9.126;2022-08-14T04:56:44;90766.72;;;16.48;64.29
54996;BME280;40893;47.146;9.126;2022-08-14T04:59:09;90764.06;;;16.57;64.79
54996;BME280;40893;47.146;9.126;2022-08-14T05:01:35;90768.50;;;16.68;64.43
54996;BME280;40893;47.146;9.126;2022-08-14T05:04:04;90773.25;;;16.79;61.91
54996;BME280;40893;47.146;9.126;2022-08-14T05:06:30;90773.44;;;16.86;62.69
54996;BME280;40893;47.146;9.126;2022-08-14T05:08:57;90775.56;;;16.96;62.76
54996;BME280;40893;47.146;9.126;2022-08-14T05:11:22;90771.38;;;16.91;63.01
54996;BME280;40893;47.146;9.126;2022-08-14T05:13:48;90778.91;;;16.96;63.35
54996;BME280;40893;47.146;9.126;2022-08-14T05:16:14;90779.69;;;16.97;63.51
54996;BME280;40893;47.146;9.126;2022-08-14T05:18:39;90775.50;;;16.92;63.87
54996;BME280;40893;47.146;9.126;2022-08-14T05:21:11;90775.69;;;16.99;63.89
54996;BME280;40893;47.146;9.126;2022-08-14T05:23:38;90772.53;;;17.06;64.01
54996;BME280;40893;47.146;9.126;2022-08-14T05:26:05;90773.81;;;17.12;63.76
54996;BME280;40893;47.146;9.126;2022-08-14T05:28:40;90772.75;;;17.13;62.01
54996;BME280;40893;47.146;9.126;2022-08-14T05:31:12;90765.28;;;17.12;62.64
54996;BME280;40893;47.146;9.126;2022-08-14T05:33:38;90764.97;;;17.13;63.04
54996;BME280;40893;47.146;9.126;2022-08-14T05:36:06;90762.06;;;17.15;63.81
54996;BME280;40893;47.146;9.126;2022-08-14T05:38:42;90764.84;;;17.22;62.53
54996;BME280;40893;47.146;9.126;2022-08-14T05:41:12;90764.59;;;17.27;59.92
54996;BME280;40893;47.146;9.126;2022-08-14T05:43:40;90767.81;;;17.36;61.23
54996;BME280;40893;47.146;9.126;2022-08-14T05:46:08;90762.81;;;17.43;62.26
54996;BME280;40893;47.146;9.126;2022-08-14T05:48:34;90754.88;;;17.52;60.87
54996;BME280;40893;47.146;9.126;2022-08-14T05:51:00;90757.13;;;17.65;62.15
54996;BME280;40893;47.146;9.126;2022-08-14T05:53:26;90766.59;;;17.73;60.44
54996;BME280;40893;47.146;9.126;2022-08-14T05:55:52;90747.88;;;17.80;59.61
54996;BME280;40893;47.146;9.126;2022-08-14T05:58:20;90739.88;;;18.01;59.07
54996;BME280;40893;47.146;9.126;2022-08-14T06:00:46;90737.88;;;18.26;59.25
54996;BME280;40893;47.146;9.126;2022-08-14T06:03:14;90728.16;;;18.38;60.50
54996;BME280;40893;47.146;9.126;2022-08-14T06:05:44;90721.34;;;18.65;60.11
54996;BME280;40893;47.146;9.126;2022-08-14T06:08:19;90716.69;;;18.90;59.39
54996;BME280;40893;47.146;9.126;2022-08-14T06:10:46;90715.25;;;19.12;56.71
54996;BME280;40893;47.146;9.126;2022-08-14T06:13:12;90716.00;;;19.32;56.74
54996;BME280;40893;47.146;9.126;2022-08-14T06:15:39;90702.13;;;19.43;52.86
54996;BME280;40893;47.146;9.126;2022-08-14T06:18:05;90682.75;;;19.60;53.71
54996;BME280;40893;47.146;9.126;2022-08-14T06:20:31;90685.66;;;19.78;53.11
54996;BME280;40893;47.146;9.126;2022-08-14T06:22:57;90677.44;;;19.99;52.96
54996;BME280;40893;47.146;9.126;2022-08-14T06:25:24;90678.59;;;20.01;51.69
54996;BME280;40893;47.146;9.126;2022-08-14T06:27:50;90677.16;;;20.04;52.13
54996;BME280;40893;47.146;9.126;2022-08-14T06:30:17;90680.63;;;20.11;52.02
54996;BME280;40893;47.146;9.126;2022-08-14T06:32:44;90690.81;;;20.20;51.87
54996;BME280;40893;47.146;9.126;2022-08-14T06:35:10;90688.72;;;20.29;51.08
54996;BME280;40893;47.146;9.126;2022-08-14T06:37:47;90693.97;;;20.33;51.05
54996;BME280;40893;47.146;9.126;2022-08-14T06:40:22;90688.50;;;20.38;52.24
54996;BME280;40893;47.146;9.126;2022-08-14T06:42:48;90692.22;;;20.37;50.52
54996;BME280;40893;47.146;9.126;2022-08-14T06:45:14;90685.25;;;20.44;49.57
54996;BME280;40893;47.146;9.126;2022-08-14T06:47:42;90695.38;;;20.49;48.35
54996;BME280;40893;47.146;9.126;2022-08-14T06:50:11;90691.00;;;20.57;50.08
54996;BME280;40893;47.146;9.126;2022-08-14T06:52:38;90694.56;;;20.72;50.07
54996;BME280;40893;47.146;9.126;2022-08-14T06:55:05;90699.94;;;20.82;49.85
54996;BME280;40893;47.146;9.126;2022-08-14T06:57:36;90702.44;;;20.75;49.05
54996;BME280;40893;47.146;9.126;2022-08-14T07:00:15;90709.13;;;20.73;50.02
54996;BME280;40893;47.146;9.126;2022-08-14T07:02:41;90706.94;;;20.78;48.81
54996;BME280;40893;47.146;9.126;2022-08-14T07:05:25;90708.25;;;20.91;49.75
54996;BME280;40893;47.146;9.126;2022-08-14T07:10:40;90699.84;;;21.31;47.92
54996;BME280;40893;47.146;9.126;2022-08-14T07:13:06;90708.31;;;21.55;48.89
54996;BME280;40893;47.146;9.126;2022-08-14T07:15:32;90709.81;;;21.59;46.74
54996;BME280;40893;47.146;9.126;2022-08-14T07:17:58;90708.47;;;21.72;47.33
54996;BME280;40893;47.146;9.126;2022-08-14T07:20:24;90708.94;;;21.82;47.87
54996;BME280;40893;47.146;9.126;2022-08-14T07:22:52;90707.22;;;21.96;46.48
54996;BME280;40893;47.146;9.126;2022-08-14T07:25:20;90709.59;;;22.08;47.93
54996;BME280;40893;47.146;9.126;2022-08-14T07:27:46;90703.38;;;22.24;48.15
54996;BME280;40893;47.146;9.126;2022-08-14T07:30:12;90705.03;;;22.46;45.93
54996;BME280;40893;47.146;9.126;2022-08-14T07:32:37;90711.47;;;22.59;45.55
54996;BME280;40893;47.146;9.126;2022-08-14T07:35:03;90715.19;;;22.55;44.27
54996;BME280;40893;47.146;9.126;2022-08-14T07:37:29;90707.00;;;22.56;42.81
54996;BME280;40893;47.146;9.126;2022-08-14T07:39:54;90706.25;;;22.59;45.29
54996;BME280;40893;47.146;9.126;2022-08-14T07:42:20;90708.66;;;22.78;45.63
54996;BME280;40893;47.146;9.126;2022-08-14T07:44:46;90711.78;;;23.02;44.71
54996;BME280;40893;47.146;9.126;2022-08-14T07:47:12;90713.69;;;23.08;43.88
54996;BME280;40893;47.146;9.126;2022-08-14T07:49:40;90712.59;;;23.13;42.18
54996;BME280;40893;47.146;9.126;2022-08-14T07:52:06;90713.75;;;23.23;42.65
54996;BME280;40893;47.146;9.126;2022-08-14T07:54:31;90716.44;;;23.40;43.30
54996;BME280;40893;47.146;9.126;2022-08-14T07:56:57;90710.94;;;23.60;42.54
54996;BME280;40893;47.146;9.126;2022-08-14T07:59:23;90704.13;;;23.44;41.90
54996;BME280;40893;47.146;9.126;2022-08-14T08:01:50;90704.94;;;23.59;43.61
54996;BME280;40893;47.146;9.126;2022-08-14T08:04:21;90703.06;;;23.52;43.20
54996;BME280;40893;47.146;9.126;2022-08-14T08:06:48;90698.97;;;23.62;43.27
54996;BME280;40893;47.146;9.126;2022-08-14T08:09:17;90685.16;;;23.69;42.88
54996;BME280;40893;47.146;9.126;2022-08-14T08:11:45;90680.31;;;23.78;42.73
54996;BME280;40893;47.146;9.126;2022-08-14T08:14:11;90682.19;;;23.81;43.09
54996;BME280;40893;47.146;9.126;2022-08-14T08:16:36;90682.19;;;23.84;44.66
54996;BME280;40893;47.146;9.126;2022-08-14T08:19:03;90686.69;;;23.95;44.38
54996;BME280;40893;47.146;9.126;2022-08-14T08:21:30;90691.59;;;24.03;42.79
54996;BME280;40893;47.146;9.126;2022-08-14T08:23:56;90695.34;;;24.02;41.97
54996;BME280;40893;47.146;9.126;2022-08-14T08:26:28;90694.94;;;24.07;43.26
54996;BME280;40893;47.146;9.126;2022-08-14T08:28:55;90696.47;;;24.19;41.42
54996;BME280;40893;47.146;9.126;2022-08-14T08:31:21;90690.53;;;24.26;42.01
54996;BME280;40893;47.146;9.126;2022-08-14T08:33:50;90687.88;;;24.29;40.76
54996;BME280;40893;47.146;9.126;2022-08-14T08:36:16;90689.75;;;24.32;40.82
54996;BME280;40893;47.146;9.126;2022-08-14T08:38:42;90688.25;;;24.38;41.20
54996;BME280;40893;47.146;9.126;2022-08-14T08:41:10;90681.13;;;24.39;40.32
54996;BME280;40893;47.146;9.126;2022-08-14T08:43:38;90678.53;;;24.28;40.50
54996;BME280;40893;47.146;9.126;2022-08-14T08:46:10;90676.66;;;24.36;41.60
54996;BME280;40893;47.146;9.126;2022-08-14T08:48:46;90681.50;;;24.51;41.04
54996;BME280;40893;47.146;9.126;2022-08-14T08:51:24;90676.63;;;24.60;39.63
54996;BME280;40893;47.146;9.126;2022-08-14T08:54:00;90679.28;;;24.71;42.30
54996;BME280;40893;47.146;9.126;2022-08-14T08:56:42;90681.47;;;24.83;42.54
54996;BME280;40893;47.146;9.126;2022-08-14T08:59:22;90668.00;;;24.81;42.74
54996;BME280;40893;47.146;9.126;2022-08-14T09:04:24;90661.53;;;25.25;40.66
54996;BME280;40893;47.146;9.126;2022-08-14T09:06:50;90666.38;;;25.33;40.32
54996;BME280;40893;47.146;9.126;2022-08-14T09:09:25;90665.63;;;25.29;38.97
54996;BME280;40893;47.146;9.126;2022-08-14T09:11:52;90659.56;;;25.43;38.50
54996;BME280;40893;47.146;9.126;2022-08-14T09:14:20;90655.75;;;25.58;39.31
54996;BME280;40893;47.146;9.126;2022-08-14T09:16:46;90666.63;;;25.67;38.93
54996;BME280;40893;47.146;9.126;2022-08-14T09:19:11;90670.31;;;25.81;39.59
54996;BME280;40893;47.146;9.126;2022-08-14T09:21:38;90656.72;;;25.93;41.18
54996;BME280;40893;47.146;9.126;2022-08-14T09:24:06;90652.44;;;26.17;41.58
54996;BME280;40893;47.146;9.126;2022-08-14T09:26:32;90651.63;;;26.23;39.13
54996;BME280;40893;47.146;9.126;2022-08-14T09:28:58;90644.88;;;26.22;40.88
54996;BME280;40893;47.146;9.126;2022-08-14T09:31:24;90645.69;;;26.16;40.63
54996;BME280;40893;47.146;9.126;2022-08-14T09:47:05;90646.72;;;27.11;36.65
54996;BME280;40893;47.146;9.126;2022-08-14T09:49:36;90639.94;;;27.14;35.78
54996;BME280;40893;47.146;9.126;2022-08-14T09:52:21;90639.16;;;27.17;37.10
54996;BME280;40893;47.146;9.126;2022-08-14T09:54:48;90628.03;;;27.36;36.85
54996;BME280;40893;47.146;9.126;2022-08-14T09:57:25;90630.22;;;27.41;35.83
54996;BME280;40893;47.146;9.126;2022-08-14T09:59:51;90629.38;;;27.47;36.59
54996;BME280;40893;47.146;9.126;2022-08-14T10:02:22;90632.69;;;27.55;35.92
54996;BME280;40893;47.146;9.126;2022-08-14T10:05:06;90624.38;;;27.60;35.94
54996;BME280;40893;47.146;9.126;2022-08-14T10:07:48;90623.19;;;27.65;37.00
54996;BME280;40893;47.146;9.126;2022-08-14T10:10:47;90614.44;;;27.71;35.19
54996;BME280;40893;47.146;9.126;2022-08-14T10:13:24;90612.28;;;27.63;36.89
54996;BME280;40893;47.146;9.126;2022-08-14T10:15:49;90619.16;;;27.53;35.95
54996;BME280;40893;47.146;9.126;2022-08-14T10:18:17;90615.84;;;27.45;34.92
54996;BME280;40893;47.146;9.126;2022-08-14T10:20:56;90614.47;;;27.03;35.32
54996;BME280;40893;47.146;9.126;2022-08-14T10:23:25;90611.09;;;27.03;35.45
54996;BME280;40893;47.146;9.126;2022-08-14T10:25:56;90616.22;;;26.76;36.11
54996;BME280;40893;47.146;9.126;2022-08-14T10:28:23;90610.31;;;26.68;35.97
54996;BME280;40893;47.146;9.126;2022-08-14T10:30:50;90608.13;;;26.63;37.61
54996;BME280;40893;47.146;9.126;2022-08-14T10:33:31;90620.28;;;26.47;36.16
54996;BME280;40893;47.146;9.126;2022-08-14T10:35:59;90622.59;;;26.41;36.50
54996;BME280;40893;47.146;9.126;2022-08-14T10:38:30;90620.44;;;26.29;37.02
54996;BME280;40893;47.146;9.126;2022-08-14T10:41:11;90614.13;;;26.16;38.76
54996;BME280;40893;47.146;9.126;2022-08-14T10:43:39;90617.13;;;26.18;39.17
54996;BME280;40893;47.146;9.126;2022-08-14T10:46:16;90602.81;;;26.22;38.16
54996;BME280;40893;47.146;9.126;2022-08-14T10:48:59;90612.47;;;26.36;38.79
54996;BME280;40893;47.146;9.126;2022-08-14T10:51:28;90613.38;;;26.15;38.29
54996;BME280;40893;47.146;9.126;2022-08-14T10:53:55;90612.34;;;26.06;38.53
54996;BME280;40893;47.146;9.126;2022-08-14T10:56:32;90611.28;;;25.96;39.39
54996;BME280;40893;47.146;9.126;2022-08-14T10:59:06;90607.09;;;25.98;38.52
54996;BME280;40893;47.146;9.126;2022-08-14T11:01:35;90608.56;;;26.07;40.50
54996;BME280;40893;47.146;9.126;2022-08-14T11:04:04;90604.84;;;26.04;40.37
54996;BME280;40893;47.146;9.126;2022-08-14T11:06:30;90609.06;;;25.91;41.65
54996;BME280;40893;47.146;9.126;2022-08-14T11:08:57;90607.91;;;25.92;42.22
54996;BME280;40893;47.146;9.126;2022-08-14T11:11:24;90610.91;;;25.94;45.36
54996;BME280;40893;47.146;9.126;2022-08-14T11:13:55;90611.94;;;26.07;43.21
54996;BME280;40893;47.146;9.126;2022-08-14T11:16:23;90609.75;;;25.98;43.40
54996;BME280;40893;47.146;9.126;2022-08-14T11:18:49;90619.94;;;25.89;42.87
54996;BME280;40893;47.146;9.126;2022-08-14T11:21:18;90612.81;;;25.90;45.09
54996;BME280;40893;47.146;9.126;2022-08-14T11:23:46;90610.16;;;25.93;44.19
54996;BME280;40893;47.146;9.126;2022-08-14T11:26:15;90610.31;;;26.20;43.90
54996;BME280;40893;47.146;9.126;2022-08-14T11:28:47;90618.50;;;26.33;41.81
54996;BME280;40893;47.146;9.126;2022-08-14T11:31:15;90620.56;;;26.56;41.36
54996;BME280;40893;47.146;9.126;2022-08-14T11:33:42;90622.75;;;26.64;39.12
54996;BME280;40893;47.146;9.126;2022-08-14T11:36:09;90626.69;;;26.42;38.36
54996;BME280;40893;47.146;9.126;2022-08-14T11:38:40;90623.00;;;26.36;37.06
54996;BME280;40893;47.146;9.126;2022-08-14T11:41:07;90623.00;;;26.36;38.68
54996;BME280;40893;47.146;9.126;2022-08-14T11:43:47;90620.00;;;26.37;36.60
54996;BME280;40893;47.146;9.126;2022-08-14T11:46:13;90610.97;;;26.38;35.75
54996;BME280;40893;47.146;9.126;2022-08-14T11:48:48;90613.97;;;26.37;33.86
54996;BME280;40893;47.146;9.126;2022-08-14T11:51:16;90608.69;;;26.41;33.18
54996;BME280;40893;47.146;9.126;2022-08-14T11:53:49;90615.34;;;26.52;31.21
54996;BME280;40893;47.146;9.126;2022-08-14T11:56:15;90619.06;;;26.55;31.70
54996;BME280;40893;47.146;9.126;2022-08-14T11:58:41;90624.97;;;26.66;31.40
54996;BME280;40893;47.146;9.126;2022-08-14T12:01:08;90626.28;;;26.51;30.39
54996;BME280;40893;47.146;9.126;2022-08-14T12:03:42;90628.75;;;26.65;32.66
54996;BME280;40893;47.146;9.126;2022-08-14T12:06:13;90630.84;;;26.84;31.90
54996;BME280;40893;47.146;9.126;2022-08-14T12:08:40;90626.31;;;26.85;30.22
54996;BME280;40893;47.146;9.126;2022-08-14T12:11:08;90627.97;;;26.68;31.06
54996;BME280;40893;47.146;9.126;2022-08-14T12:13:35;90639.31;;;26.61;33.83
54996;BME280;40893;47.146;9.126;2022-08-14T12:16:04;90637.13;;;26.53;31.89
54996;BME280;40893;47.146;9.126;2022-08-14T12:18:36;90639.81;;;26.49;31.95
54996;BME280;40893;47.146;9.126;2022-08-14T12:21:13;90638.41;;;26.34;32.31
54996;BME280;40893;47.146;9.126;2022-08-14T12:23:40;90634.66;;;26.35;31.78
54996;BME280;40893;47.146;9.126;2022-08-14T12:26:13;90643.72;;;26.23;32.57
54996;BME280;40893;47.146;9.126;2022-08-14T12:28:40;90633.16;;;26.34;33.05
54996;BME280;40893;47.146;9.126;2022-08-14T12:31:18;90630.44;;;26.45;33.28
54996;BME280;40893;47.146;9.126;2022-08-14T12:33:58;90627.13;;;26.37;31.09
54996;BME280;40893;47.146;9.126;2022-08-14T12:36:24;90619.06;;;26.58;32.10
54996;BME280;40893;47.146;9.126;2022-08-14T12:38:58;90619.88;;;26.89;31.29
54996;BME280;40893;47.146;9.126;2022-08-14T12:41:28;90633.56;;;27.11;31.69
54996;BME280;40893;47.146;9.126;2022-08-14T12:44:05;90627.16;;;27.12;31.60
54996;BME280;40893;47.146;9.126;2022-08-14T12:46:40;90623.28;;;27.24;32.09
54996;BME280;40893;47.146;9.126;2022-08-14T12:49:14;90621.88;;;27.16;32.25
54996;BME280;40893;47.146;9.126;2022-08-14T12:51:42;90613.25;;;27.11;33.16
54996;BME280;40893;47.146;9.126;2022-08-14T12:54:14;90612.25;;;27.02;32.70
54996;BME280;40893;47.146;9.126;2022-08-14T12:56:40;90603.69;;;26.94;31.43
54996;BME280;40893;47.146;9.126;2022-08-14T12:59:06;90613.16;;;26.85;31.54
54996;BME280;40893;47.146;9.126;2022-08-14T13:01:33;90615.22;;;26.66;33.65
54996;BME280;40893;47.146;9.126;2022-08-14T13:06:37;90597.72;;;26.49;33.74
54996;BME280;40893;47.146;9.126;2022-08-14T13:09:06;90604.72;;;26.63;34.24
54996;BME280;40893;47.146;9.126;2022-08-14T13:11:41;90587.59;;;26.85;35.46
54996;BME280;40893;47.146;9.126;2022-08-14T13:14:13;90587.38;;;27.06;35.56
54996;BME280;40893;47.146;9.126;2022-08-14T13:16:40;90585.72;;;27.20;35.97
54996;BME280;40893;47.146;9.126;2022-08-14T13:19:11;90582.66;;;27.21;35.28
54996;BME280;40893;47.146;9.126;2022-08-14T13:21:49;90581.22;;;27.17;33.79
54996;BME280;40893;47.146;9.126;2022-08-14T13:24:18;90580.84;;;27.18;34.69
54996;BME280;40893;47.146;9.126;2022-08-14T13:27:02;90577.38;;;27.25;33.92
54996;BME280;40893;47.146;9.126;2022-08-14T13:29:29;90584.00;;;27.36;35.52